createdAt,value
2022-10-17T00:00:59.627Z,81.14
2022-10-17T00:06:04.963Z,81.34
2022-10-17T00:11:04.399Z,81.46
2022-10-17T00:16:00.171Z,81.61
2022-10-17T00:20:55.265Z,81.70
2022-10-17T00:25:59.735Z,81.82
2022-10-17T00:30:59.594Z,81.89
2022-10-17T00:36:04.072Z,81.95
2022-10-17T00:40:59.087Z,82.00
2022-10-17T00:45:54.062Z,82.06
2022-10-17T00:50:51.129Z,82.17
2022-10-17T00:55:53.313Z,82.30
2022-10-17T01:00:50.301Z,82.42
2022-10-17T01:05:46.651Z,82.53
2022-10-17T01:10:57.161Z,82.60
2022-10-17T01:16:09.191Z,82.68
2022-10-17T01:21:33.847Z,82.71
2022-10-17T01:26:48.742Z,82.77
2022-10-17T01:31:52.569Z,82.86
2022-10-17T01:36:56.963Z,82.96
2022-10-17T01:42:01.814Z,83.01
2022-10-17T01:47:03.475Z,83.06
2022-10-17T01:52:06.693Z,83.08
2022-10-17T01:57:08.264Z,83.23
2022-10-17T02:02:05.332Z,83.34
2022-10-17T02:07:10.611Z,83.36
2022-10-17T02:12:34.139Z,83.37
2022-10-17T02:17:44.338Z,83.40
2022-10-17T02:22:47.164Z,83.45
2022-10-17T02:27:52.743Z,83.55
2022-10-17T02:32:56.680Z,83.61
2022-10-17T02:37:54.110Z,83.66
2022-10-17T02:42:52.444Z,83.71
2022-10-17T02:47:59.342Z,83.84
2022-10-17T02:53:02.274Z,83.88
2022-10-17T02:58:03.602Z,84.02
2022-10-17T03:02:58.604Z,84.21
2022-10-17T03:07:54.451Z,84.46
2022-10-17T03:12:49.341Z,84.47
2022-10-17T03:22:44.078Z,84.65
2022-10-17T03:27:38.946Z,84.76
2022-10-17T03:32:35.983Z,84.81
2022-10-17T03:37:31.213Z,84.82
2022-10-17T03:42:26.966Z,85.01
2022-10-17T03:47:22.414Z,85.10
2022-10-17T03:52:17.439Z,85.19
2022-10-17T03:57:13.873Z,85.51
2022-10-17T04:02:09.080Z,85.49
2022-10-17T04:07:03.922Z,85.59
2022-10-17T04:11:59.868Z,85.69
2022-10-17T04:16:55.193Z,85.74
2022-10-17T04:21:50.212Z,85.70
2022-10-17T04:26:45.800Z,85.64
2022-10-17T04:31:41.678Z,85.69
2022-10-17T04:36:58.278Z,85.72
2022-10-17T04:41:55.971Z,85.75
2022-10-17T04:46:51.312Z,85.72
2022-10-17T04:51:46.411Z,85.74
2022-10-17T04:57:01.940Z,85.81
2022-10-17T05:01:57.029Z,85.89
2022-10-17T05:06:52.128Z,85.93
2022-10-17T05:12:22.892Z,86.03
2022-10-17T05:17:18.557Z,86.10
2022-10-17T05:22:13.772Z,86.09
2022-10-17T05:27:09.374Z,86.20
2022-10-17T05:32:05.420Z,86.37
2022-10-17T05:37:02.654Z,86.40
2022-10-17T05:41:58.448Z,86.36
2022-10-17T05:46:53.598Z,86.29
2022-10-17T05:51:49.262Z,86.33
2022-10-17T05:56:44.306Z,86.38
2022-10-17T06:01:39.829Z,86.41
2022-10-17T06:06:37.769Z,86.42
2022-10-17T06:11:33.775Z,86.54
2022-10-17T06:16:29.172Z,86.56
2022-10-17T06:21:26.709Z,86.53
2022-10-17T06:26:29.690Z,86.55
2022-10-17T06:31:24.290Z,86.55
2022-10-17T06:36:19.695Z,86.48
2022-10-17T06:41:18.844Z,86.49
2022-10-17T06:46:16.709Z,86.40
2022-10-17T06:51:21.985Z,86.53
2022-10-17T06:56:21.386Z,86.55
2022-10-17T07:01:44.574Z,86.47
2022-10-17T07:06:42.688Z,86.44
2022-10-17T07:11:47.054Z,86.44
2022-10-17T07:16:45.873Z,86.14
2022-10-17T07:21:46.770Z,86.03
2022-10-17T07:26:42.012Z,85.86
2022-10-17T07:31:36.932Z,85.62
2022-10-17T07:36:31.491Z,85.35
2022-10-17T07:41:28.471Z,84.92
2022-10-17T07:46:24.101Z,84.59
2022-10-17T07:51:21.458Z,84.24
2022-10-17T07:56:16.800Z,83.89
2022-10-17T08:01:15.389Z,83.37
2022-10-17T08:06:11.690Z,83.12
2022-10-17T08:11:09.565Z,82.78
2022-10-17T08:16:08.195Z,82.37
2022-10-17T08:21:05.612Z,81.97
2022-10-17T08:26:03.915Z,81.51
2022-10-17T08:31:06.856Z,80.93
2022-10-17T08:36:02.788Z,80.51
2022-10-17T08:41:02.052Z,80.15
2022-10-17T08:46:02.637Z,79.62
2022-10-17T08:51:03.310Z,79.04
2022-10-17T08:56:01.252Z,78.69
2022-10-17T09:01:12.059Z,78.11
2022-10-17T09:06:23.902Z,77.83
2022-10-17T09:11:42.397Z,76.82
2022-10-17T09:17:02.465Z,76.03
2022-10-17T09:22:04.113Z,75.36
2022-10-17T09:26:59.022Z,74.43
2022-10-17T09:32:10.926Z,73.10
2022-10-17T09:37:13.345Z,71.77
2022-10-17T09:42:12.613Z,71.37
2022-10-17T09:47:26.038Z,70.68
2022-10-17T09:52:27.186Z,71.22
2022-10-17T09:57:23.252Z,70.87
2022-10-17T10:02:32.646Z,69.75
2022-10-17T10:07:32.279Z,68.86
2022-10-17T10:12:30.972Z,68.09
2022-10-17T10:17:42.126Z,68.02
2022-10-17T10:22:37.294Z,65.29
2022-10-17T10:32:35.461Z,62.82
2022-10-17T10:37:39.187Z,62.23
2022-10-17T10:42:39.693Z,60.73
2022-10-17T10:47:34.876Z,59.79
2022-10-17T10:52:41.400Z,60.50
2022-10-17T10:57:39.371Z,59.65
2022-10-17T11:02:43.117Z,59.71
2022-10-17T11:07:46.653Z,58.78
2022-10-17T11:12:48.958Z,59.68
2022-10-17T11:17:52.950Z,56.54
2022-10-17T11:22:53.813Z,55.36
2022-10-17T11:27:49.355Z,52.86
2022-10-17T11:32:50.831Z,52.62
2022-10-17T11:37:53.532Z,54.20
2022-10-17T11:42:58.718Z,51.94
2022-10-17T11:48:00.548Z,52.76
2022-10-17T11:53:04.140Z,52.22
2022-10-17T11:58:23.756Z,51.19
2022-10-17T12:03:45.266Z,52.52
2022-10-17T12:08:54.127Z,53.21
2022-10-17T12:13:54.506Z,51.18
2022-10-17T12:18:52.744Z,51.66
2022-10-17T12:23:56.114Z,49.65
2022-10-17T12:28:51.358Z,50.40
2022-10-17T12:33:53.181Z,50.96
2022-10-17T12:38:51.761Z,50.23
2022-10-17T12:49:19.428Z,48.50
2022-10-17T12:54:17.658Z,47.64
2022-10-17T12:59:20.651Z,48.09
2022-10-17T13:04:16.588Z,48.99
2022-10-17T13:09:29.131Z,49.50
2022-10-17T13:14:27.068Z,49.82
2022-10-17T13:19:24.835Z,48.75
2022-10-17T13:24:31.028Z,48.89
2022-10-17T13:29:29.184Z,47.40
2022-10-17T13:34:27.808Z,46.43
2022-10-17T13:39:38.222Z,45.25
2022-10-17T13:44:43.446Z,45.66
2022-10-17T13:49:43.632Z,45.72
2022-10-17T13:54:41.855Z,45.65
2022-10-17T13:59:48.330Z,46.04
2022-10-17T14:05:16.170Z,46.69
2022-10-17T14:09:59.251Z,47.52
2022-10-17T14:15:10.233Z,48.26
2022-10-17T14:20:48.276Z,48.85
2022-10-17T14:25:36.539Z,50.13
2022-10-17T14:30:56.922Z,50.96
2022-10-17T14:35:54.344Z,52.04
2022-10-17T14:41:04.836Z,52.73
2022-10-17T14:46:17.275Z,53.52
2022-10-17T14:51:16.301Z,54.12
2022-10-17T14:56:26.636Z,54.80
2022-10-17T15:01:22.232Z,55.26
2022-10-17T15:06:24.132Z,55.82
2022-10-17T15:11:21.544Z,56.24
2022-10-17T15:16:21.058Z,56.64
2022-10-17T15:21:26.653Z,57.12
2022-10-17T15:26:35.187Z,57.55
2022-10-17T15:31:32.805Z,58.03
2022-10-17T15:36:36.167Z,58.44
2022-10-17T15:41:34.487Z,58.90
2022-10-17T15:46:34.770Z,59.41
2022-10-17T15:51:33.519Z,59.89
2022-10-17T15:56:35.374Z,60.26
2022-10-17T16:01:34.172Z,60.75
2022-10-17T16:06:29.883Z,61.24
2022-10-17T16:11:33.427Z,61.73
2022-10-17T16:16:28.832Z,62.23
2022-10-17T16:21:27.992Z,62.73
2022-10-17T16:26:23.492Z,63.45
2022-10-17T16:31:24.787Z,63.92
2022-10-17T16:36:20.302Z,64.47
2022-10-17T16:41:23.574Z,64.66
2022-10-17T16:46:19.486Z,65.53
2022-10-17T16:51:17.852Z,65.80
2022-10-17T16:56:17.445Z,66.15
2022-10-17T17:01:15.490Z,66.55
2022-10-17T17:06:20.917Z,66.96
2022-10-17T17:11:19.785Z,67.32
2022-10-17T17:16:18.047Z,67.71
2022-10-17T17:21:15.229Z,68.15
2022-10-17T17:26:17.948Z,68.28
2022-10-17T17:31:16.625Z,68.59
2022-10-17T17:36:16.791Z,68.75
2022-10-17T17:41:13.769Z,69.71
2022-10-17T17:46:09.623Z,69.92
2022-10-17T17:51:08.404Z,70.37
2022-10-17T17:56:06.101Z,70.82
2022-10-17T18:01:01.745Z,70.92
2022-10-17T18:05:56.566Z,71.19
2022-10-17T18:10:58.510Z,71.65
2022-10-17T18:15:59.341Z,71.80
2022-10-17T18:20:55.323Z,71.94
2022-10-17T18:25:57.271Z,72.12
2022-10-17T18:30:57.533Z,72.38
2022-10-17T18:35:54.994Z,72.77
2022-10-17T18:41:03.573Z,73.13
2022-10-17T18:46:05.156Z,73.22
2022-10-17T18:51:00.510Z,73.46
2022-10-17T18:55:56.242Z,73.79
2022-10-17T19:00:52.324Z,74.03
2022-10-17T19:05:47.682Z,74.11
2022-10-17T19:10:43.632Z,74.26
2022-10-17T19:15:39.761Z,74.54
2022-10-17T19:20:35.712Z,74.89
2022-10-17T19:25:33.410Z,74.87
2022-10-17T19:30:53.430Z,75.10
2022-10-17T19:35:57.294Z,75.45
2022-10-17T19:40:53.561Z,75.83
2022-10-17T19:45:57.646Z,76.06
2022-10-17T19:50:53.056Z,76.15
2022-10-17T19:55:51.125Z,76.36
2022-10-17T20:00:50.278Z,76.49
2022-10-17T20:05:46.227Z,76.57
2022-10-17T20:10:43.489Z,77.04
2022-10-17T20:15:39.652Z,77.56
2022-10-17T20:20:36.761Z,77.55
2022-10-17T20:25:33.893Z,77.71
2022-10-17T20:30:29.090Z,77.78
2022-10-17T20:37:03.483Z,77.94
2022-10-17T20:43:38.666Z,78.04
2022-10-17T20:48:36.834Z,78.37
2022-10-17T20:58:58.522Z,78.37
2022-10-17T21:03:54.334Z,78.62
2022-10-17T21:08:52.536Z,78.67
2022-10-17T21:13:53.872Z,78.93
2022-10-17T21:18:49.132Z,79.19
2022-10-17T21:23:48.702Z,79.24
2022-10-17T21:28:46.137Z,79.45
2022-10-17T21:33:43.588Z,79.52
2022-10-17T21:38:39.603Z,79.43
2022-10-17T21:43:35.602Z,79.70
2022-10-17T21:48:30.527Z,79.76
2022-10-17T21:53:26.624Z,79.88
2022-10-17T21:58:23.913Z,80.18
2022-10-17T22:03:19.315Z,80.08
2022-10-17T22:08:15.640Z,80.44
2022-10-17T22:13:13.397Z,80.41
2022-10-17T22:18:09.583Z,80.26
2022-10-17T22:23:05.925Z,80.22
2022-10-17T22:28:01.279Z,80.51
2022-10-17T22:32:56.274Z,80.73
2022-10-17T22:37:51.569Z,80.56
2022-10-17T22:42:46.247Z,80.68
2022-10-17T22:47:41.141Z,81.12
2022-10-17T22:52:35.910Z,81.53
2022-10-17T22:57:31.007Z,81.47
2022-10-17T23:02:26.103Z,81.74
2022-10-17T23:07:22.707Z,81.81
2022-10-17T23:12:18.807Z,81.96
2022-10-17T23:17:14.525Z,81.88
2022-10-17T23:22:10.095Z,81.98
2022-10-17T23:27:04.833Z,81.89
2022-10-17T23:32:00.903Z,82.09
2022-10-17T23:36:55.672Z,82.17
2022-10-17T23:41:54.285Z,82.29
2022-10-17T23:46:49.286Z,82.36
2022-10-17T23:51:44.854Z,82.49
2022-10-17T23:56:40.234Z,82.40
